createdAt,value
2022-10-30T00:00:52.350Z,63.29
2022-10-30T00:03:19.810Z,63.44
2022-10-30T00:05:49.384Z,63.14
2022-10-30T00:08:18.883Z,63.61
2022-10-30T00:10:46.704Z,64.56
2022-10-30T00:13:14.314Z,64.44
2022-10-30T00:15:47.439Z,64.76
2022-10-30T00:18:14.782Z,64.26
2022-10-30T00:20:41.754Z,64.20
2022-10-30T00:23:08.851Z,64.36
2022-10-30T00:25:36.683Z,64.19
2022-10-30T00:28:05.711Z,64.24
2022-10-30T00:30:34.512Z,64.48
2022-10-30T00:33:01.745Z,64.20
2022-10-30T00:35:29.131Z,64.43
2022-10-30T00:37:56.469Z,64.37
2022-10-30T00:40:24.257Z,64.64
2022-10-30T00:42:52.205Z,64.11
2022-10-30T00:45:19.436Z,63.79
2022-10-30T00:47:55.202Z,63.88
2022-10-30T00:50:28.536Z,63.55
2022-10-30T00:53:07.781Z,63.41
2022-10-30T00:55:56.792Z,63.40
2022-10-30T00:58:31.753Z,63.63
2022-10-30T01:01:03.456Z,63.22
2022-10-30T01:03:31.883Z,63.52
2022-10-30T01:06:00.751Z,63.21
2022-10-30T01:08:27.994Z,62.81
2022-10-30T01:10:57.293Z,62.82
2022-10-30T01:13:25.021Z,62.83
2022-10-30T01:16:26.833Z,62.82
2022-10-30T01:19:14.371Z,62.30
2022-10-30T01:21:46.713Z,62.41
2022-10-30T01:24:28.681Z,62.38
2022-10-30T01:27:23.233Z,62.51
2022-10-30T01:30:10.373Z,62.52
2022-10-30T01:33:05.460Z,62.36
2022-10-30T01:35:44.840Z,62.29
2022-10-30T01:38:21.242Z,62.49
2022-10-30T01:40:52.670Z,62.82
2022-10-30T01:43:20.431Z,62.55
2022-10-30T01:46:17.139Z,62.86
2022-10-30T01:48:53.451Z,62.60
2022-10-30T01:51:33.011Z,62.67
2022-10-30T01:54:21.713Z,62.51
2022-10-30T01:57:18.423Z,62.83
2022-10-30T01:59:54.531Z,62.57
2022-10-30T02:02:22.810Z,62.12
2022-10-30T02:04:50.963Z,62.39
2022-10-30T02:07:18.063Z,62.08
2022-10-30T02:09:51.562Z,62.16
2022-10-30T02:12:19.672Z,62.39
2022-10-30T02:14:53.391Z,62.09
2022-10-30T02:17:21.000Z,62.08
2022-10-30T02:19:50.046Z,62.29
2022-10-30T02:22:18.404Z,62.20
2022-10-30T02:24:45.993Z,62.95
2022-10-30T02:27:13.481Z,63.29
2022-10-30T02:29:41.081Z,63.69
2022-10-30T02:32:08.254Z,63.67
2022-10-30T02:34:35.552Z,63.10
2022-10-30T02:37:02.562Z,63.20
2022-10-30T02:39:29.572Z,63.34
2022-10-30T02:41:57.824Z,63.17
2022-10-30T02:44:24.887Z,63.08
2022-10-30T02:46:51.832Z,62.76
2022-10-30T02:49:18.801Z,62.87
2022-10-30T02:51:45.741Z,62.86
2022-10-30T02:54:13.391Z,62.73
2022-10-30T02:56:41.224Z,62.74
2022-10-30T02:59:08.372Z,62.36
2022-10-30T03:01:35.424Z,62.57
2022-10-30T03:04:02.512Z,62.79
2022-10-30T03:06:29.581Z,62.84
2022-10-30T03:08:58.202Z,62.38
2022-10-30T03:11:25.151Z,62.68
2022-10-30T03:13:54.691Z,62.51
2022-10-30T03:16:25.120Z,62.38
2022-10-30T03:18:53.142Z,62.30
2022-10-30T03:21:22.327Z,62.43
2022-10-30T03:23:52.671Z,62.08
2022-10-30T03:26:20.473Z,62.01
2022-10-30T03:28:51.392Z,62.08
2022-10-30T03:31:19.717Z,61.65
2022-10-30T03:33:49.891Z,61.85
2022-10-30T03:36:18.202Z,61.85
2022-10-30T03:38:45.250Z,61.70
2022-10-30T03:41:16.131Z,61.76
2022-10-30T03:43:44.512Z,62.26
2022-10-30T03:46:11.721Z,61.90
2022-10-30T03:48:39.234Z,62.13
2022-10-30T03:51:06.621Z,62.36
2022-10-30T03:53:34.442Z,62.12
2022-10-30T03:56:04.207Z,62.33
2022-10-30T03:58:40.453Z,62.04
2022-10-30T04:01:10.895Z,62.01
2022-10-30T04:03:40.892Z,61.82
2022-10-30T04:06:09.702Z,61.95
2022-10-30T04:08:36.941Z,61.60
2022-10-30T04:11:04.861Z,61.85
2022-10-30T04:13:32.302Z,61.48
2022-10-30T04:15:59.273Z,61.51
2022-10-30T04:18:26.762Z,61.61
2022-10-30T04:20:59.608Z,61.09
2022-10-30T04:23:27.152Z,61.23
2022-10-30T04:25:55.602Z,61.03
2022-10-30T04:28:23.281Z,60.75
2022-10-30T04:30:50.384Z,60.80
2022-10-30T04:33:18.154Z,60.59
2022-10-30T04:35:45.106Z,60.99
2022-10-30T04:38:16.593Z,60.41
2022-10-30T04:40:44.742Z,60.36
2022-10-30T04:43:13.852Z,60.44
2022-10-30T04:45:42.123Z,60.43
2022-10-30T04:48:15.084Z,60.84
2022-10-30T04:50:43.800Z,60.62
2022-10-30T04:53:16.862Z,60.54
2022-10-30T04:55:47.344Z,60.92
2022-10-30T04:58:15.102Z,60.80
2022-10-30T05:00:46.725Z,60.66
2022-10-30T05:03:19.744Z,60.47
2022-10-30T05:05:49.082Z,60.79
2022-10-30T05:08:16.125Z,60.51
2022-10-30T05:10:45.624Z,60.38
2022-10-30T05:13:13.631Z,59.92
2022-10-30T05:15:43.534Z,59.86
2022-10-30T05:18:10.884Z,59.75
2022-10-30T05:20:38.134Z,59.62
2022-10-30T05:23:05.905Z,59.62
2022-10-30T05:25:33.312Z,59.48
2022-10-30T05:28:03.915Z,59.58
2022-10-30T05:30:36.861Z,59.43
2022-10-30T05:33:13.424Z,59.77
2022-10-30T05:35:40.742Z,59.50
2022-10-30T05:38:08.222Z,59.89
2022-10-30T05:40:35.779Z,60.24
2022-10-30T05:43:03.701Z,59.97
2022-10-30T05:45:31.542Z,59.71
2022-10-30T05:48:03.062Z,59.63
2022-10-30T05:50:34.982Z,59.38
2022-10-30T05:53:23.582Z,59.22
2022-10-30T05:55:52.503Z,59.44
2022-10-30T05:58:21.976Z,59.41
2022-10-30T06:00:50.055Z,59.34
2022-10-30T06:03:27.192Z,59.14
2022-10-30T06:05:56.095Z,59.23
2022-10-30T06:08:23.632Z,59.42
2022-10-30T06:10:55.977Z,59.20
2022-10-30T06:13:27.620Z,59.20
2022-10-30T06:16:01.096Z,59.76
2022-10-30T06:18:43.415Z,59.67
2022-10-30T06:21:12.478Z,59.45
2022-10-30T06:24:02.414Z,59.27
2022-10-30T06:26:43.777Z,58.74
2022-10-30T06:29:14.137Z,58.17
2022-10-30T06:31:41.705Z,58.36
2022-10-30T06:34:08.975Z,58.19
2022-10-30T06:36:39.451Z,57.71
2022-10-30T06:39:06.701Z,57.26
2022-10-30T06:41:48.882Z,58.31
2022-10-30T06:44:45.415Z,58.59
2022-10-30T06:47:12.777Z,58.57
2022-10-30T06:49:40.073Z,58.44
2022-10-30T06:52:07.376Z,57.67
2022-10-30T06:54:35.231Z,58.03
2022-10-30T06:57:25.344Z,58.32
2022-10-30T07:00:07.667Z,58.69
2022-10-30T07:03:02.702Z,58.92
2022-10-30T07:05:30.709Z,59.40
2022-10-30T07:07:58.179Z,58.83
2022-10-30T07:10:25.377Z,59.20
2022-10-30T07:13:23.859Z,58.59
2022-10-30T07:16:23.495Z,58.37
2022-10-30T07:18:51.618Z,58.51
2022-10-30T07:21:18.859Z,58.34
2022-10-30T07:23:46.179Z,58.06
2022-10-30T07:26:28.068Z,58.05
2022-10-30T07:28:58.574Z,57.90
2022-10-30T07:32:02.161Z,57.33
2022-10-30T07:34:45.302Z,57.20
2022-10-30T07:37:30.391Z,57.21
2022-10-30T07:40:12.307Z,56.87
2022-10-30T07:43:01.564Z,56.99
2022-10-30T07:45:41.578Z,57.04
2022-10-30T07:48:34.819Z,56.36
2022-10-30T07:51:17.535Z,56.22
2022-10-30T07:53:44.784Z,55.23
2022-10-30T07:56:13.055Z,55.48
2022-10-30T07:58:52.308Z,55.57
2022-10-30T08:01:31.565Z,55.42
2022-10-30T08:04:11.584Z,55.36
2022-10-30T08:06:38.977Z,54.91
2022-10-30T08:09:06.216Z,55.16
2022-10-30T08:11:34.377Z,55.12
2022-10-30T08:14:02.024Z,55.25
2022-10-30T08:16:29.216Z,55.11
2022-10-30T08:18:57.779Z,55.39
2022-10-30T08:21:26.064Z,55.27
2022-10-30T08:23:59.498Z,55.25
2022-10-30T08:26:29.140Z,54.87
2022-10-30T08:28:56.706Z,54.85
2022-10-30T08:31:25.817Z,54.83
2022-10-30T08:34:02.145Z,55.23
2022-10-30T08:36:51.947Z,54.84
2022-10-30T08:39:20.377Z,54.43
2022-10-30T08:42:07.105Z,54.81
2022-10-30T08:44:40.338Z,54.41
2022-10-30T08:47:26.256Z,54.43
2022-10-30T08:49:53.617Z,54.07
2022-10-30T08:52:24.596Z,54.20
2022-10-30T08:54:56.857Z,54.02
2022-10-30T08:57:26.899Z,54.08
2022-10-30T08:59:56.862Z,53.52
2022-10-30T09:02:42.737Z,53.69
2022-10-30T09:05:28.367Z,53.16
2022-10-30T09:08:16.056Z,53.64
2022-10-30T09:11:03.439Z,52.87
2022-10-30T09:13:31.016Z,52.51
2022-10-30T09:16:02.938Z,52.21
2022-10-30T09:18:33.177Z,50.50
2022-10-30T09:21:04.551Z,50.01
2022-10-30T09:23:37.627Z,49.93
2022-10-30T09:26:27.860Z,49.39
2022-10-30T09:29:18.102Z,49.11
2022-10-30T09:31:57.617Z,49.03
2022-10-30T09:37:19.616Z,47.89
2022-10-30T09:39:51.376Z,47.76
2022-10-30T09:42:48.645Z,48.43
2022-10-30T09:45:34.889Z,47.99
2022-10-30T09:48:39.428Z,48.78
2022-10-30T09:51:41.183Z,47.91
2022-10-30T09:54:39.775Z,48.09
2022-10-30T09:57:42.287Z,48.36
2022-10-30T10:00:13.432Z,47.99
2022-10-30T10:02:53.507Z,48.73
2022-10-30T10:05:28.735Z,48.25
2022-10-30T10:08:28.956Z,47.89
2022-10-30T10:11:24.617Z,47.75
2022-10-30T10:14:02.622Z,47.03
2022-10-30T10:16:35.443Z,46.77
2022-10-30T10:19:34.783Z,45.64
2022-10-30T10:22:04.122Z,45.52
2022-10-30T10:24:42.405Z,44.29
2022-10-30T10:27:31.155Z,43.92
2022-10-30T10:30:05.375Z,43.75
2022-10-30T10:32:41.555Z,44.30
2022-10-30T10:35:11.273Z,43.79
2022-10-30T10:37:52.700Z,43.58
2022-10-30T10:40:46.364Z,43.25
2022-10-30T10:43:25.531Z,43.56
2022-10-30T10:46:30.135Z,43.25
2022-10-30T10:48:57.244Z,43.11
2022-10-30T10:51:37.298Z,42.65
2022-10-30T10:54:12.387Z,41.37
2022-10-30T10:56:43.899Z,41.24
2022-10-30T10:59:38.804Z,41.16
2022-10-30T11:02:05.871Z,40.71
2022-10-30T11:04:36.525Z,40.86
2022-10-30T11:07:14.658Z,40.60
2022-10-30T11:09:42.386Z,40.08
2022-10-30T11:12:09.616Z,40.16
2022-10-30T11:14:40.027Z,39.53
2022-10-30T11:17:15.896Z,39.46
2022-10-30T11:19:45.420Z,39.02
2022-10-30T11:22:25.097Z,38.23
2022-10-30T11:24:52.156Z,38.25
2022-10-30T11:27:28.824Z,38.04
2022-10-30T11:30:04.975Z,38.01
2022-10-30T11:32:34.556Z,37.35
2022-10-30T11:35:10.414Z,36.69
2022-10-30T11:37:39.987Z,36.43
2022-10-30T11:40:16.855Z,35.87
2022-10-30T11:42:53.636Z,36.52
2022-10-30T11:45:28.007Z,36.60
2022-10-30T11:48:01.210Z,36.54
2022-10-30T11:50:31.916Z,36.42
2022-10-30T11:53:11.776Z,35.94
2022-10-30T11:55:45.226Z,36.53
2022-10-30T11:58:30.216Z,36.34
2022-10-30T12:13:20.749Z,36.55
2022-10-30T12:15:50.875Z,36.38
2022-10-30T12:18:26.163Z,35.87
2022-10-30T12:20:55.902Z,35.53
2022-10-30T12:23:26.065Z,35.94
2022-10-30T12:26:00.320Z,35.49
2022-10-30T12:28:33.106Z,35.14
2022-10-30T12:31:08.836Z,34.47
2022-10-30T12:33:44.598Z,34.31
2022-10-30T12:36:16.976Z,33.48
2022-10-30T12:38:52.623Z,33.71
2022-10-30T12:41:27.556Z,33.60
2022-10-30T12:44:08.904Z,32.80
2022-10-30T12:46:42.685Z,32.35
2022-10-30T12:49:22.095Z,32.51
2022-10-30T12:51:54.676Z,31.97
2022-10-30T12:55:03.347Z,31.24
2022-10-30T12:57:41.758Z,30.89
2022-10-30T13:00:16.897Z,30.02
2022-10-30T13:03:22.629Z,29.62
2022-10-30T13:06:00.445Z,29.07
2022-10-30T13:08:36.816Z,28.12
2022-10-30T13:11:09.617Z,27.97
2022-10-30T13:13:41.286Z,28.23
2022-10-30T13:16:15.479Z,28.58
2022-10-30T13:18:42.517Z,28.56
2022-10-30T13:21:38.827Z,28.01
2022-10-30T13:24:12.417Z,27.90
2022-10-30T13:26:48.214Z,27.97
2022-10-30T13:29:36.706Z,28.42
2022-10-30T13:32:41.173Z,28.73
2022-10-30T13:35:18.100Z,29.67
2022-10-30T13:37:58.320Z,30.13
2022-10-30T13:40:46.830Z,32.34
2022-10-30T13:43:29.444Z,32.78
2022-10-30T13:46:16.320Z,33.82
2022-10-30T13:49:05.576Z,34.85
2022-10-30T13:51:39.371Z,35.80
2022-10-30T13:54:10.266Z,36.76
2022-10-30T13:56:37.384Z,37.93
2022-10-30T13:59:25.755Z,38.11
2022-10-30T14:02:05.677Z,38.65
2022-10-30T14:04:39.097Z,39.52
2022-10-30T14:07:35.554Z,39.88
2022-10-30T14:10:11.175Z,41.19
2022-10-30T14:13:14.919Z,41.11
2022-10-30T14:15:45.427Z,42.20
2022-10-30T14:18:12.417Z,42.90
2022-10-30T14:20:40.105Z,42.92
2022-10-30T14:23:23.555Z,43.50
2022-10-30T14:26:05.863Z,44.11
2022-10-30T14:28:35.946Z,44.18
2022-10-30T14:31:16.873Z,43.87
2022-10-30T14:33:55.186Z,44.24
2022-10-30T14:36:46.507Z,44.39
2022-10-30T14:39:13.499Z,44.95
2022-10-30T14:41:42.916Z,46.20
2022-10-30T14:44:26.326Z,46.45
2022-10-30T14:46:57.676Z,46.62
2022-10-30T14:49:33.538Z,46.25
2022-10-30T14:52:13.676Z,46.60
2022-10-30T14:54:59.439Z,46.58
2022-10-30T14:57:48.523Z,46.57
2022-10-30T15:00:25.006Z,47.64
2022-10-30T15:03:24.036Z,47.88
2022-10-30T15:05:56.772Z,48.69
2022-10-30T15:08:31.237Z,48.71
2022-10-30T15:11:27.255Z,48.72
2022-10-30T15:14:01.156Z,49.30
2022-10-30T15:16:29.767Z,49.47
2022-10-30T15:19:13.942Z,49.76
2022-10-30T15:21:47.148Z,50.17
2022-10-30T15:24:18.095Z,50.49
2022-10-30T15:26:50.716Z,50.36
2022-10-30T15:29:30.275Z,50.63
2022-10-30T15:32:05.877Z,50.70
2022-10-30T15:34:33.658Z,50.31
2022-10-30T15:37:11.786Z,51.26
2022-10-30T15:39:39.028Z,51.28
2022-10-30T15:42:06.075Z,51.72
2022-10-30T15:44:43.736Z,52.12
2022-10-30T15:47:16.735Z,52.22
2022-10-30T15:49:55.427Z,52.71
2022-10-30T15:52:26.755Z,53.11
2022-10-30T15:55:00.122Z,53.37
2022-10-30T16:00:29.780Z,54.04
2022-10-30T16:03:16.245Z,54.19
2022-10-30T16:05:43.525Z,54.37
2022-10-30T16:08:28.236Z,54.86
2022-10-30T16:10:56.237Z,54.87
2022-10-30T16:13:29.174Z,55.24
2022-10-30T16:15:56.824Z,55.77
2022-10-30T16:18:27.913Z,55.57
2022-10-30T16:21:02.461Z,55.84
2022-10-30T16:23:30.920Z,56.35
2022-10-30T16:25:59.495Z,56.43
2022-10-30T16:28:34.845Z,57.16
2022-10-30T16:31:07.555Z,57.23
2022-10-30T16:33:37.088Z,57.27
2022-10-30T16:36:05.796Z,57.11
2022-10-30T16:38:37.130Z,57.41
2022-10-30T16:41:13.679Z,57.52
2022-10-30T16:43:44.146Z,57.66
2022-10-30T16:46:14.295Z,57.72
2022-10-30T16:49:01.586Z,57.71
2022-10-30T16:51:29.396Z,57.46
2022-10-30T16:53:56.674Z,57.86
2022-10-30T16:56:26.981Z,57.65
2022-10-30T16:58:59.735Z,57.84
2022-10-30T17:01:28.062Z,57.88
2022-10-30T17:03:56.153Z,58.06
2022-10-30T17:06:35.640Z,57.41
2022-10-30T17:09:08.724Z,57.87
2022-10-30T17:11:44.238Z,57.73
2022-10-30T17:14:22.036Z,57.65
2022-10-30T17:16:56.960Z,57.41
2022-10-30T17:19:46.575Z,57.38
2022-10-30T17:22:19.515Z,57.76
2022-10-30T17:24:48.013Z,57.82
2022-10-30T17:27:46.510Z,58.25
2022-10-30T17:30:33.015Z,57.98
2022-10-30T17:33:00.886Z,58.14
2022-10-30T17:35:28.056Z,58.30
2022-10-30T17:37:58.391Z,58.22
2022-10-30T17:40:28.705Z,58.47
2022-10-30T17:42:55.604Z,57.98
2022-10-30T17:45:22.916Z,58.27
2022-10-30T17:47:49.836Z,57.79
2022-10-30T17:50:16.906Z,58.42
2022-10-30T17:52:43.857Z,57.98
2022-10-30T17:55:28.668Z,58.61
2022-10-30T17:57:55.677Z,57.25
2022-10-30T18:00:22.757Z,57.39
2022-10-30T18:02:50.025Z,57.14
2022-10-30T18:05:20.165Z,56.80
2022-10-30T18:07:47.308Z,56.99
2022-10-30T18:10:14.979Z,57.03
2022-10-30T18:12:42.095Z,57.11
2022-10-30T18:15:30.215Z,57.67
2022-10-30T18:17:57.625Z,57.17
2022-10-30T18:20:24.734Z,56.92
2022-10-30T18:22:51.917Z,57.07
2022-10-30T18:25:24.248Z,57.06
2022-10-30T18:27:51.889Z,57.31
2022-10-30T18:30:19.776Z,57.09
2022-10-30T18:32:47.415Z,57.26
2022-10-30T18:35:21.739Z,57.53
2022-10-30T18:37:48.854Z,57.55
2022-10-30T18:40:18.984Z,57.42
2022-10-30T18:42:48.870Z,57.49
2022-10-30T18:45:33.084Z,57.68
2022-10-30T18:48:05.316Z,57.62
2022-10-30T18:50:33.523Z,57.22
2022-10-30T18:53:01.511Z,56.97
2022-10-30T18:55:40.134Z,56.17
2022-10-30T18:58:08.065Z,56.16
2022-10-30T19:00:57.967Z,55.99
2022-10-30T19:03:23.797Z,55.99
2022-10-30T19:05:51.336Z,55.67
2022-10-30T19:08:18.385Z,55.07
2022-10-30T19:10:47.093Z,55.11
2022-10-30T19:13:19.834Z,55.25
2022-10-30T19:15:59.021Z,55.22
2022-10-30T19:18:28.665Z,55.04
2022-10-30T19:21:05.558Z,54.62
2022-10-30T19:23:33.715Z,55.06
2022-10-30T19:26:01.620Z,54.91
2022-10-30T19:28:30.995Z,54.40
2022-10-30T19:30:58.055Z,54.19
2022-10-30T19:33:26.537Z,54.13
2022-10-30T19:36:02.647Z,54.24
2022-10-30T19:38:31.020Z,53.64
2022-10-30T19:40:58.174Z,54.15
2022-10-30T19:43:26.622Z,54.01
2022-10-30T19:45:57.096Z,54.08
2022-10-30T19:48:55.446Z,54.58
2022-10-30T19:51:12.397Z,54.31
2022-10-30T19:53:41.097Z,54.68
2022-10-30T19:56:14.250Z,54.38
2022-10-30T19:58:41.888Z,54.73
2022-10-30T20:01:12.571Z,54.28
2022-10-30T20:03:39.600Z,53.64
2022-10-30T20:06:06.932Z,53.57
2022-10-30T20:08:33.876Z,54.11
2022-10-30T20:11:02.214Z,53.84
2022-10-30T20:13:30.176Z,53.67
2022-10-30T20:15:59.678Z,54.04
2022-10-30T20:18:30.743Z,54.18
2022-10-30T20:20:59.903Z,54.27
2022-10-30T20:23:27.696Z,53.96
2022-10-30T20:25:59.476Z,54.40
2022-10-30T20:28:28.800Z,54.45
2022-10-30T20:30:56.392Z,54.22
2022-10-30T20:33:25.686Z,53.78
2022-10-30T20:35:54.873Z,53.90
2022-10-30T20:38:26.582Z,53.83
2022-10-30T20:40:54.134Z,53.88
2022-10-30T20:43:27.487Z,53.54
2022-10-30T20:45:54.464Z,53.88
2022-10-30T20:48:21.500Z,53.69
2022-10-30T20:50:50.776Z,53.16
2022-10-30T20:53:17.979Z,53.22
2022-10-30T20:55:45.836Z,52.63
2022-10-30T20:58:13.069Z,53.29
2022-10-30T21:00:40.073Z,53.44
2022-10-30T21:03:08.480Z,53.73
2022-10-30T21:05:45.405Z,53.57
2022-10-30T21:08:14.297Z,53.65
2022-10-30T21:10:42.633Z,53.50
2022-10-30T21:13:10.997Z,53.59
2022-10-30T21:15:40.345Z,53.81
2022-10-30T21:18:07.726Z,53.70
2022-10-30T21:20:34.972Z,53.93
2022-10-30T21:23:01.955Z,53.90
2022-10-30T21:25:29.839Z,53.99
2022-10-30T21:27:57.371Z,53.47
2022-10-30T21:30:24.657Z,53.35
2022-10-30T21:32:51.723Z,52.89
2022-10-30T21:35:19.095Z,53.44
2022-10-30T21:37:46.077Z,53.67
2022-10-30T21:40:13.528Z,53.25
2022-10-30T21:42:40.438Z,52.79
2022-10-30T21:45:08.148Z,53.41
2022-10-30T21:47:35.169Z,53.07
2022-10-30T21:50:05.989Z,53.40
2022-10-30T21:52:35.056Z,53.87
2022-10-30T21:55:02.116Z,53.63
2022-10-30T21:57:29.610Z,53.67
2022-10-30T21:59:58.868Z,53.75
2022-10-30T22:02:31.479Z,53.92
2022-10-30T22:04:58.437Z,53.94
2022-10-30T22:07:25.395Z,53.93
2022-10-30T22:09:53.740Z,53.75
2022-10-30T22:12:20.775Z,53.78
2022-10-30T22:14:47.761Z,54.16
2022-10-30T22:17:14.758Z,54.30
2022-10-30T22:19:41.747Z,54.09
2022-10-30T22:22:09.336Z,53.76
2022-10-30T22:24:36.387Z,53.94
2022-10-30T22:27:03.537Z,54.14
2022-10-30T22:29:30.496Z,54.18
2022-10-30T22:31:57.516Z,54.34
2022-10-30T22:34:24.484Z,54.73
2022-10-30T22:36:51.476Z,54.74
2022-10-30T22:39:18.457Z,55.02
2022-10-30T22:41:45.405Z,54.52
2022-10-30T22:44:14.936Z,54.59
2022-10-30T22:46:42.279Z,54.55
2022-10-30T22:49:09.414Z,54.53
2022-10-30T22:51:38.777Z,54.52
2022-10-30T22:54:08.517Z,54.90
2022-10-30T22:56:36.717Z,54.44
2022-10-30T22:59:04.909Z,54.05
2022-10-30T23:01:32.974Z,53.95
2022-10-30T23:04:02.289Z,54.26
2022-10-30T23:06:31.400Z,54.22
2022-10-30T23:08:59.975Z,54.32
2022-10-30T23:11:29.797Z,54.43
2022-10-30T23:13:57.317Z,54.65
2022-10-30T23:16:26.035Z,54.89
2022-10-30T23:18:56.186Z,55.05
2022-10-30T23:21:25.405Z,54.75
2022-10-30T23:23:52.787Z,54.65
2022-10-30T23:26:22.479Z,54.52
2022-10-30T23:28:51.734Z,55.08
2022-10-30T23:31:25.905Z,54.86
2022-10-30T23:33:55.326Z,56.33
2022-10-30T23:36:22.476Z,56.32
2022-10-30T23:38:57.817Z,55.96
2022-10-30T23:41:27.383Z,55.94
2022-10-30T23:43:56.055Z,55.94
2022-10-30T23:46:23.666Z,55.89
2022-10-30T23:48:50.574Z,56.14
2022-10-30T23:51:17.695Z,56.10
2022-10-30T23:53:44.645Z,56.34
2022-10-30T23:56:11.654Z,56.22
2022-10-30T23:58:48.134Z,56.42
